sensor_id;sensor_type;location;lat;lon;timestamp;temperature;humidity
21734;DHT22;11029;47.820;10.534;2022-11-11T00:02:42;2.50;74.70
21734;DHT22;11029;47.820;10.534;2022-11-11T00:05:27;2.50;74.90
21734;DHT22;11029;47.820;10.534;2022-11-11T00:08:12;2.40;75.30
21734;DHT22;11029;47.820;10.534;2022-11-11T00:11:08;2.50;75.20
21734;DHT22;11029;47.820;10.534;2022-11-11T00:13:53;2.40;74.10
21734;DHT22;11029;47.820;10.534;2022-11-11T00:16:38;2.30;74.10
21734;DHT22;11029;47.820;10.534;2022-11-11T00:19:42;2.20;75.30
21734;DHT22;11029;47.820;10.534;2022-11-11T00:22:46;2.10;76.00
21734;DHT22;11029;47.820;10.534;2022-11-11T00:25:51;2.20;76.50
21734;DHT22;11029;47.820;10.534;2022-11-11T00:28:55;2.20;76.10
21734;DHT22;11029;47.820;10.534;2022-11-11T00:31:40;2.20;76.40
21734;DHT22;11029;47.820;10.534;2022-11-11T00:34:46;2.30;76.00
21734;DHT22;11029;47.820;10.534;2022-11-11T00:37:51;2.30;75.50
21734;DHT22;11029;47.820;10.534;2022-11-11T00:40:36;2.40;75.70
21734;DHT22;11029;47.820;10.534;2022-11-11T00:43:21;2.40;74.60
21734;DHT22;11029;47.820;10.534;2022-11-11T00:46:06;2.30;75.00
21734;DHT22;11029;47.820;10.534;2022-11-11T00:49:11;2.20;76.70
21734;DHT22;11029;47.820;10.534;2022-11-11T00:52:15;2.20;76.60
21734;DHT22;11029;47.820;10.534;2022-11-11T00:55:00;2.20;77.10
21734;DHT22;11029;47.820;10.534;2022-11-11T00:57:45;2.20;77.50
21734;DHT22;11029;47.820;10.534;2022-11-11T01:00:31;2.20;77.00
21734;DHT22;11029;47.820;10.534;2022-11-11T01:03:16;2.30;76.90
21734;DHT22;11029;47.820;10.534;2022-11-11T01:06:02;2.20;76.60
21734;DHT22;11029;47.820;10.534;2022-11-11T01:08:47;2.10;76.20
21734;DHT22;11029;47.820;10.534;2022-11-11T01:11:33;2.10;76.80
21734;DHT22;11029;47.820;10.534;2022-11-11T01:14:18;2.10;75.90
21734;DHT22;11029;47.820;10.534;2022-11-11T01:17:03;2.00;76.50
21734;DHT22;11029;47.820;10.534;2022-11-11T01:19:50;2.00;76.00
21734;DHT22;11029;47.820;10.534;2022-11-11T01:22:35;2.00;76.00
21734;DHT22;11029;47.820;10.534;2022-11-11T01:25:20;2.10;76.10
21734;DHT22;11029;47.820;10.534;2022-11-11T01:28:06;2.10;75.00
21734;DHT22;11029;47.820;10.534;2022-11-11T01:30:52;2.10;74.90
21734;DHT22;11029;47.820;10.534;2022-11-11T01:33:38;2.10;74.50
21734;DHT22;11029;47.820;10.534;2022-11-11T01:36:24;2.00;75.50
21734;DHT22;11029;47.820;10.534;2022-11-11T01:39:10;1.90;75.50
21734;DHT22;11029;47.820;10.534;2022-11-11T01:41:55;1.90;75.30
21734;DHT22;11029;47.820;10.534;2022-11-11T01:44:46;1.80;76.10
21734;DHT22;11029;47.820;10.534;2022-11-11T01:47:32;1.80;75.80
21734;DHT22;11029;47.820;10.534;2022-11-11T01:50:58;1.80;75.50
21734;DHT22;11029;47.820;10.534;2022-11-11T01:53:44;1.80;75.30
21734;DHT22;11029;47.820;10.534;2022-11-11T01:56:32;1.70;75.70
21734;DHT22;11029;47.820;10.534;2022-11-11T01:59:17;1.80;75.90
21734;DHT22;11029;47.820;10.534;2022-11-11T02:02:04;1.70;76.30
21734;DHT22;11029;47.820;10.534;2022-11-11T02:04:53;1.70;76.10
21734;DHT22;11029;47.820;10.534;2022-11-11T02:07:57;1.70;76.50
21734;DHT22;11029;47.820;10.534;2022-11-11T02:10:44;1.70;76.50
21734;DHT22;11029;47.820;10.534;2022-11-11T02:13:30;1.80;75.90
21734;DHT22;11029;47.820;10.534;2022-11-11T02:16:36;1.80;75.80
21734;DHT22;11029;47.820;10.534;2022-11-11T02:19:22;1.70;75.70
21734;DHT22;11029;47.820;10.534;2022-11-11T02:22:16;1.70;76.10
21734;DHT22;11029;47.820;10.534;2022-11-11T02:25:03;1.60;76.50
21734;DHT22;11029;47.820;10.534;2022-11-11T02:27:50;1.60;76.00
21734;DHT22;11029;47.820;10.534;2022-11-11T02:30:36;1.60;76.30
21734;DHT22;11029;47.820;10.534;2022-11-11T02:33:21;1.60;76.40
21734;DHT22;11029;47.820;10.534;2022-11-11T02:36:08;1.70;76.60
21734;DHT22;11029;47.820;10.534;2022-11-11T02:38:57;1.70;75.50
21734;DHT22;11029;47.820;10.534;2022-11-11T02:41:46;1.70;75.60
21734;DHT22;11029;47.820;10.534;2022-11-11T02:44:43;1.70;74.90
21734;DHT22;11029;47.820;10.534;2022-11-11T02:47:28;1.70;75.30
21734;DHT22;11029;47.820;10.534;2022-11-11T02:50:13;1.60;75.20
21734;DHT22;11029;47.820;10.534;2022-11-11T02:52:59;1.60;74.30
21734;DHT22;11029;47.820;10.534;2022-11-11T02:55:44;1.50;76.00
21734;DHT22;11029;47.820;10.534;2022-11-11T02:58:29;1.50;77.00
21734;DHT22;11029;47.820;10.534;2022-11-11T03:01:14;1.40;76.40
21734;DHT22;11029;47.820;10.534;2022-11-11T03:04:04;1.40;76.00
21734;DHT22;11029;47.820;10.534;2022-11-11T03:06:50;1.40;75.90
21734;DHT22;11029;47.820;10.534;2022-11-11T03:09:35;1.50;75.80
21734;DHT22;11029;47.820;10.534;2022-11-11T03:12:21;1.50;76.10
21734;DHT22;11029;47.820;10.534;2022-11-11T03:15:07;1.60;74.90
21734;DHT22;11029;47.820;10.534;2022-11-11T03:17:52;1.50;75.60
21734;DHT22;11029;47.820;10.534;2022-11-11T03:20:38;1.50;74.80
21734;DHT22;11029;47.820;10.534;2022-11-11T03:23:42;1.50;74.50
21734;DHT22;11029;47.820;10.534;2022-11-11T03:26:27;1.40;74.30
21734;DHT22;11029;47.820;10.534;2022-11-11T03:29:12;1.50;74.90
21734;DHT22;11029;47.820;10.534;2022-11-11T03:31:57;1.50;74.70
21734;DHT22;11029;47.820;10.534;2022-11-11T03:34:42;1.60;74.40
21734;DHT22;11029;47.820;10.534;2022-11-11T03:37:27;1.50;73.40
21734;DHT22;11029;47.820;10.534;2022-11-11T03:40:31;1.50;74.10
21734;DHT22;11029;47.820;10.534;2022-11-11T03:43:17;1.40;73.80
21734;DHT22;11029;47.820;10.534;2022-11-11T03:46:03;1.40;74.40
21734;DHT22;11029;47.820;10.534;2022-11-11T03:48:49;1.30;75.30
21734;DHT22;11029;47.820;10.534;2022-11-11T03:51:34;1.30;74.90
21734;DHT22;11029;47.820;10.534;2022-11-11T03:54:19;1.30;74.90
21734;DHT22;11029;47.820;10.534;2022-11-11T03:57:04;1.20;75.00
21734;DHT22;11029;47.820;10.534;2022-11-11T04:00:08;1.20;75.50
21734;DHT22;11029;47.820;10.534;2022-11-11T04:06:07;1.30;74.40
21734;DHT22;11029;47.820;10.534;2022-11-11T04:09:11;1.30;74.60
21734;DHT22;11029;47.820;10.534;2022-11-11T04:12:16;1.20;74.90
21734;DHT22;11029;47.820;10.534;2022-11-11T04:15:01;1.10;74.90
21734;DHT22;11029;47.820;10.534;2022-11-11T04:18:06;1.10;75.50
21734;DHT22;11029;47.820;10.534;2022-11-11T04:20:51;1.10;75.60
21734;DHT22;11029;47.820;10.534;2022-11-11T04:23:55;1.20;76.50
21734;DHT22;11029;47.820;10.534;2022-11-11T04:26:40;1.30;73.90
21734;DHT22;11029;47.820;10.534;2022-11-11T04:29:26;1.20;74.70
21734;DHT22;11029;47.820;10.534;2022-11-11T04:32:15;1.20;74.40
21734;DHT22;11029;47.820;10.534;2022-11-11T04:35:19;1.10;75.20
21734;DHT22;11029;47.820;10.534;2022-11-11T04:38:04;1.10;75.10
21734;DHT22;11029;47.820;10.534;2022-11-11T04:41:08;1.10;76.00
21734;DHT22;11029;47.820;10.534;2022-11-11T04:43:55;1.10;75.90
21734;DHT22;11029;47.820;10.534;2022-11-11T04:46:59;1.10;76.20
21734;DHT22;11029;47.820;10.534;2022-11-11T04:49:45;1.20;75.70
21734;DHT22;11029;47.820;10.534;2022-11-11T04:52:30;1.20;75.50
21734;DHT22;11029;47.820;10.534;2022-11-11T04:55:16;1.20;74.60
21734;DHT22;11029;47.820;10.534;2022-11-11T04:58:21;1.00;75.30
21734;DHT22;11029;47.820;10.534;2022-11-11T05:01:06;1.10;75.90
21734;DHT22;11029;47.820;10.534;2022-11-11T05:03:57;1.10;76.30
21734;DHT22;11029;47.820;10.534;2022-11-11T05:06:42;1.20;76.20
21734;DHT22;11029;47.820;10.534;2022-11-11T05:09:46;1.10;76.30
21734;DHT22;11029;47.820;10.534;2022-11-11T05:12:31;1.20;75.60
21734;DHT22;11029;47.820;10.534;2022-11-11T05:15:16;1.10;76.90
21734;DHT22;11029;47.820;10.534;2022-11-11T05:18:20;1.10;77.80
21734;DHT22;11029;47.820;10.534;2022-11-11T05:21:25;1.00;76.90
21734;DHT22;11029;47.820;10.534;2022-11-11T05:24:11;1.00;77.40
21734;DHT22;11029;47.820;10.534;2022-11-11T05:27:17;1.00;76.50
21734;DHT22;11029;47.820;10.534;2022-11-11T05:30:04;1.10;76.40
21734;DHT22;11029;47.820;10.534;2022-11-11T05:32:50;1.00;76.50
21734;DHT22;11029;47.820;10.534;2022-11-11T05:35:35;1.00;76.30
21734;DHT22;11029;47.820;10.534;2022-11-11T05:38:20;1.00;76.60
21734;DHT22;11029;47.820;10.534;2022-11-11T05:41:06;0.90;77.20
21734;DHT22;11029;47.820;10.534;2022-11-11T05:43:52;0.90;76.90
21734;DHT22;11029;47.820;10.534;2022-11-11T05:46:37;0.90;76.90
21734;DHT22;11029;47.820;10.534;2022-11-11T05:49:22;1.00;76.30
21734;DHT22;11029;47.820;10.534;2022-11-11T05:52:09;1.00;76.20
21734;DHT22;11029;47.820;10.534;2022-11-11T05:54:55;1.00;76.00
21734;DHT22;11029;47.820;10.534;2022-11-11T05:57:40;0.90;76.30
21734;DHT22;11029;47.820;10.534;2022-11-11T06:00:25;0.90;76.70
21734;DHT22;11029;47.820;10.534;2022-11-11T06:03:10;0.80;77.40
21734;DHT22;11029;47.820;10.534;2022-11-11T06:05:55;0.90;77.50
21734;DHT22;11029;47.820;10.534;2022-11-11T06:08:40;0.90;77.30
21734;DHT22;11029;47.820;10.534;2022-11-11T06:11:26;1.00;76.10
21734;DHT22;11029;47.820;10.534;2022-11-11T06:14:17;0.90;76.30
21734;DHT22;11029;47.820;10.534;2022-11-11T06:17:02;0.90;76.10
21734;DHT22;11029;47.820;10.534;2022-11-11T06:19:47;0.90;77.50
21734;DHT22;11029;47.820;10.534;2022-11-11T06:22:33;0.90;76.70
21734;DHT22;11029;47.820;10.534;2022-11-11T06:25:37;0.90;76.30
21734;DHT22;11029;47.820;10.534;2022-11-11T06:28:42;0.90;76.70
21734;DHT22;11029;47.820;10.534;2022-11-11T06:31:32;0.90;76.70
21734;DHT22;11029;47.820;10.534;2022-11-11T06:34:22;0.90;77.40
21734;DHT22;11029;47.820;10.534;2022-11-11T06:37:07;1.00;77.10
21734;DHT22;11029;47.820;10.534;2022-11-11T06:39:52;1.00;76.90
21734;DHT22;11029;47.820;10.534;2022-11-11T06:42:38;1.00;76.60
21734;DHT22;11029;47.820;10.534;2022-11-11T06:45:23;1.10;76.20
21734;DHT22;11029;47.820;10.534;2022-11-11T06:48:08;1.10;76.20
21734;DHT22;11029;47.820;10.534;2022-11-11T06:50:54;1.10;75.60
21734;DHT22;11029;47.820;10.534;2022-11-11T06:53:40;1.10;75.80
21734;DHT22;11029;47.820;10.534;2022-11-11T06:56:25;1.20;76.30
21734;DHT22;11029;47.820;10.534;2022-11-11T06:59:10;1.30;75.90
21734;DHT22;11029;47.820;10.534;2022-11-11T07:01:55;1.40;75.60
21734;DHT22;11029;47.820;10.534;2022-11-11T07:04:40;1.50;75.00
21734;DHT22;11029;47.820;10.534;2022-11-11T07:07:26;1.50;76.30
21734;DHT22;11029;47.820;10.534;2022-11-11T07:10:12;1.40;77.70
21734;DHT22;11029;47.820;10.534;2022-11-11T07:12:58;1.60;77.30
21734;DHT22;11029;47.820;10.534;2022-11-11T07:15:44;1.50;78.40
21734;DHT22;11029;47.820;10.534;2022-11-11T07:18:29;1.50;79.00
21734;DHT22;11029;47.820;10.534;2022-11-11T07:21:14;1.50;79.60
21734;DHT22;11029;47.820;10.534;2022-11-11T07:23:59;1.70;79.80
21734;DHT22;11029;47.820;10.534;2022-11-11T07:26:44;1.90;79.20
21734;DHT22;11029;47.820;10.534;2022-11-11T07:29:29;2.00;78.30
21734;DHT22;11029;47.820;10.534;2022-11-11T07:32:15;2.20;78.60
21734;DHT22;11029;47.820;10.534;2022-11-11T07:35:01;2.30;78.10
21734;DHT22;11029;47.820;10.534;2022-11-11T07:37:46;2.50;77.90
21734;DHT22;11029;47.820;10.534;2022-11-11T07:40:31;2.60;77.40
21734;DHT22;11029;47.820;10.534;2022-11-11T07:43:16;2.80;77.00
21734;DHT22;11029;47.820;10.534;2022-11-11T07:46:02;2.70;78.50
21734;DHT22;11029;47.820;10.534;2022-11-11T07:48:47;2.80;77.10
21734;DHT22;11029;47.820;10.534;2022-11-11T07:51:32;2.80;77.20
21734;DHT22;11029;47.820;10.534;2022-11-11T07:54:17;2.80;77.30
21734;DHT22;11029;47.820;10.534;2022-11-11T07:57:02;2.80;78.10
21734;DHT22;11029;47.820;10.534;2022-11-11T07:59:47;2.90;77.50
21734;DHT22;11029;47.820;10.534;2022-11-11T08:02:32;3.00;77.30
21734;DHT22;11029;47.820;10.534;2022-11-11T08:05:18;3.10;76.40
21734;DHT22;11029;47.820;10.534;2022-11-11T08:08:04;3.20;76.10
21734;DHT22;11029;47.820;10.534;2022-11-11T08:10:52;3.30;76.70
21734;DHT22;11029;47.820;10.534;2022-11-11T08:13:38;3.40;76.10
21734;DHT22;11029;47.820;10.534;2022-11-11T08:16:26;3.50;76.40
21734;DHT22;11029;47.820;10.534;2022-11-11T08:19:11;3.60;76.30
21734;DHT22;11029;47.820;10.534;2022-11-11T08:21:56;3.60;76.60
21734;DHT22;11029;47.820;10.534;2022-11-11T08:24:41;3.80;76.20
21734;DHT22;11029;47.820;10.534;2022-11-11T08:27:46;3.80;76.70
21734;DHT22;11029;47.820;10.534;2022-11-11T08:30:31;3.90;77.00
21734;DHT22;11029;47.820;10.534;2022-11-11T08:33:17;4.10;76.40
21734;DHT22;11029;47.820;10.534;2022-11-11T08:36:22;4.20;76.50
21734;DHT22;11029;47.820;10.534;2022-11-11T08:39:09;4.30;77.30
21734;DHT22;11029;47.820;10.534;2022-11-11T08:41:54;4.60;76.50
21734;DHT22;11029;47.820;10.534;2022-11-11T08:44:39;4.70;77.30
21734;DHT22;11029;47.820;10.534;2022-11-11T08:47:24;4.80;78.60
21734;DHT22;11029;47.820;10.534;2022-11-11T08:50:09;4.90;78.20
21734;DHT22;11029;47.820;10.534;2022-11-11T08:52:54;5.10;77.90
21734;DHT22;11029;47.820;10.534;2022-11-11T08:55:40;5.20;79.60
21734;DHT22;11029;47.820;10.534;2022-11-11T08:58:25;5.40;78.50
21734;DHT22;11029;47.820;10.534;2022-11-11T09:01:11;5.50;78.80
21734;DHT22;11029;47.820;10.534;2022-11-11T09:03:57;5.50;79.40
21734;DHT22;11029;47.820;10.534;2022-11-11T09:07:03;5.70;80.00
21734;DHT22;11029;47.820;10.534;2022-11-11T09:09:48;6.00;78.90
21734;DHT22;11029;47.820;10.534;2022-11-11T09:12:33;6.20;77.90
21734;DHT22;11029;47.820;10.534;2022-11-11T09:15:18;6.30;77.60
21734;DHT22;11029;47.820;10.534;2022-11-11T09:18:03;6.50;77.20
21734;DHT22;11029;47.820;10.534;2022-11-11T09:20:48;6.70;76.70
21734;DHT22;11029;47.820;10.534;2022-11-11T09:23:35;6.80;76.80
21734;DHT22;11029;47.820;10.534;2022-11-11T09:26:20;6.90;76.10
21734;DHT22;11029;47.820;10.534;2022-11-11T09:29:05;7.00;75.60
21734;DHT22;11029;47.820;10.534;2022-11-11T09:31:50;7.20;75.10
21734;DHT22;11029;47.820;10.534;2022-11-11T09:34:35;7.30;75.00
21734;DHT22;11029;47.820;10.534;2022-11-11T09:37:20;7.40;75.20
21734;DHT22;11029;47.820;10.534;2022-11-11T09:40:06;7.60;74.80
21734;DHT22;11029;47.820;10.534;2022-11-11T09:45:50;7.70;73.70
21734;DHT22;11029;47.820;10.534;2022-11-11T09:48:48;7.70;74.10
21734;DHT22;11029;47.820;10.534;2022-11-11T09:51:42;7.80;73.70
21734;DHT22;11029;47.820;10.534;2022-11-11T09:54:36;7.80;73.80
21734;DHT22;11029;47.820;10.534;2022-11-11T09:57:41;7.90;74.30
21734;DHT22;11029;47.820;10.534;2022-11-11T10:00:28;8.00;73.70
21734;DHT22;11029;47.820;10.534;2022-11-11T10:03:20;8.00;73.30
21734;DHT22;11029;47.820;10.534;2022-11-11T10:06:17;8.10;72.90
21734;DHT22;11029;47.820;10.534;2022-11-11T10:09:17;8.20;73.50
21734;DHT22;11029;47.820;10.534;2022-11-11T10:12:11;8.40;73.70
21734;DHT22;11029;47.820;10.534;2022-11-11T10:14:59;8.50;73.10
21734;DHT22;11029;47.820;10.534;2022-11-11T10:18:08;8.60;73.50
21734;DHT22;11029;47.820;10.534;2022-11-11T10:21:01;8.80;72.90
21734;DHT22;11029;47.820;10.534;2022-11-11T10:23:49;9.00;72.50
21734;DHT22;11029;47.820;10.534;2022-11-11T10:26:36;9.20;72.00
21734;DHT22;11029;47.820;10.534;2022-11-11T10:29:22;9.40;72.00
21734;DHT22;11029;47.820;10.534;2022-11-11T10:32:09;9.60;72.30
21734;DHT22;11029;47.820;10.534;2022-11-11T10:34:58;9.70;72.10
21734;DHT22;11029;47.820;10.534;2022-11-11T10:37:44;9.90;72.30
21734;DHT22;11029;47.820;10.534;2022-11-11T10:40:34;10.00;72.10
21734;DHT22;11029;47.820;10.534;2022-11-11T10:43:25;10.00;72.40
21734;DHT22;11029;47.820;10.534;2022-11-11T10:49:20;10.20;72.30
21734;DHT22;11029;47.820;10.534;2022-11-11T10:52:19;10.30;72.10
21734;DHT22;11029;47.820;10.534;2022-11-11T10:55:07;10.40;71.60
21734;DHT22;11029;47.820;10.534;2022-11-11T11:00:38;10.50;71.70
21734;DHT22;11029;47.820;10.534;2022-11-11T11:03:33;10.50;71.30
21734;DHT22;11029;47.820;10.534;2022-11-11T11:06:24;10.70;71.80
21734;DHT22;11029;47.820;10.534;2022-11-11T11:09:18;10.80;70.80
21734;DHT22;11029;47.820;10.534;2022-11-11T11:12:09;10.90;70.10
21734;DHT22;11029;47.820;10.534;2022-11-11T11:14:57;10.90;70.80
21734;DHT22;11029;47.820;10.534;2022-11-11T11:20:31;11.20;69.80
21734;DHT22;11029;47.820;10.534;2022-11-11T11:23:19;11.40;69.20
21734;DHT22;11029;47.820;10.534;2022-11-11T11:26:18;11.40;68.00
21734;DHT22;11029;47.820;10.534;2022-11-11T11:29:03;11.50;67.40
21734;DHT22;11029;47.820;10.534;2022-11-11T11:31:50;11.50;66.10
21734;DHT22;11029;47.820;10.534;2022-11-11T11:34:41;11.50;64.70
21734;DHT22;11029;47.820;10.534;2022-11-11T11:37:27;11.60;64.20
21734;DHT22;11029;47.820;10.534;2022-11-11T11:40:12;11.60;63.90
21734;DHT22;11029;47.820;10.534;2022-11-11T11:42:57;11.60;62.80
21734;DHT22;11029;47.820;10.534;2022-11-11T11:45:42;11.60;61.80
21734;DHT22;11029;47.820;10.534;2022-11-11T11:51:32;11.50;62.50
21734;DHT22;11029;47.820;10.534;2022-11-11T11:57:12;11.50;61.40
21734;DHT22;11029;47.820;10.534;2022-11-11T12:00:04;11.60;61.60
21734;DHT22;11029;47.820;10.534;2022-11-11T12:05:42;12.00;62.10
21734;DHT22;11029;47.820;10.534;2022-11-11T12:11:38;12.40;64.30
21734;DHT22;11029;47.820;10.534;2022-11-11T12:20:19;13.00;63.60
21734;DHT22;11029;47.820;10.534;2022-11-11T12:26:34;13.30;62.30
21734;DHT22;11029;47.820;10.534;2022-11-11T12:35:22;13.50;60.80
21734;DHT22;11029;47.820;10.534;2022-11-11T12:38:17;13.70;60.00
21734;DHT22;11029;47.820;10.534;2022-11-11T12:44:09;13.70;60.20
21734;DHT22;11029;47.820;10.534;2022-11-11T12:47:15;13.70;60.40
21734;DHT22;11029;47.820;10.534;2022-11-11T12:55:53;13.80;56.50
21734;DHT22;11029;47.820;10.534;2022-11-11T12:58:47;13.60;57.20
21734;DHT22;11029;47.820;10.534;2022-11-11T13:04:34;13.90;57.80
21734;DHT22;11029;47.820;10.534;2022-11-11T13:16:11;14.00;57.20
21734;DHT22;11029;47.820;10.534;2022-11-11T13:18:58;14.00;55.90
21734;DHT22;11029;47.820;10.534;2022-11-11T13:24:49;14.40;53.90
21734;DHT22;11029;47.820;10.534;2022-11-11T13:30:33;14.90;53.10
21734;DHT22;11029;47.820;10.534;2022-11-11T13:33:26;15.00;53.80
21734;DHT22;11029;47.820;10.534;2022-11-11T13:36:20;15.20;57.30
21734;DHT22;11029;47.820;10.534;2022-11-11T13:39:15;15.40;57.30
21734;DHT22;11029;47.820;10.534;2022-11-11T13:42:05;15.90;56.40
21734;DHT22;11029;47.820;10.534;2022-11-11T13:44:52;16.50;54.00
21734;DHT22;11029;47.820;10.534;2022-11-11T13:47:38;17.10;53.60
21734;DHT22;11029;47.820;10.534;2022-11-11T13:50:31;16.90;53.30
21734;DHT22;11029;47.820;10.534;2022-11-11T13:53:30;16.80;53.20
21734;DHT22;11029;47.820;10.534;2022-11-11T13:56:35;16.80;53.10
21734;DHT22;11029;47.820;10.534;2022-11-11T13:59:21;17.50;51.70
21734;DHT22;11029;47.820;10.534;2022-11-11T14:02:12;18.40;50.20
21734;DHT22;11029;47.820;10.534;2022-11-11T14:07:48;19.80;45.80
21734;DHT22;11029;47.820;10.534;2022-11-11T14:16:08;19.10;47.00
21734;DHT22;11029;47.820;10.534;2022-11-11T14:18:54;19.00;47.30
21734;DHT22;11029;47.820;10.534;2022-11-11T14:24:43;19.10;47.80
21734;DHT22;11029;47.820;10.534;2022-11-11T14:27:29;19.30;47.30
21734;DHT22;11029;47.820;10.534;2022-11-11T14:30:30;19.10;47.30
21734;DHT22;11029;47.820;10.534;2022-11-11T14:33:20;19.10;47.60
21734;DHT22;11029;47.820;10.534;2022-11-11T14:36:14;19.10;47.10
21734;DHT22;11029;47.820;10.534;2022-11-11T14:39:11;19.00;46.70
21734;DHT22;11029;47.820;10.534;2022-11-11T14:41:59;18.70;47.40
21734;DHT22;11029;47.820;10.534;2022-11-11T14:44:44;18.20;48.80
21734;DHT22;11029;47.820;10.534;2022-11-11T14:47:36;17.90;49.20
21734;DHT22;11029;47.820;10.534;2022-11-11T14:53:19;16.60;52.70
21734;DHT22;11029;47.820;10.534;2022-11-11T14:56:12;16.00;54.00
21734;DHT22;11029;47.820;10.534;2022-11-11T14:59:02;15.40;55.40
21734;DHT22;11029;47.820;10.534;2022-11-11T15:01:50;14.80;57.80
21734;DHT22;11029;47.820;10.534;2022-11-11T15:04:37;14.20;59.50
21734;DHT22;11029;47.820;10.534;2022-11-11T15:07:33;13.60;61.50
21734;DHT22;11029;47.820;10.534;2022-11-11T15:10:44;13.20;63.30
21734;DHT22;11029;47.820;10.534;2022-11-11T15:22:19;12.00;67.20
21734;DHT22;11029;47.820;10.534;2022-11-11T15:31:36;11.40;69.40
21734;DHT22;11029;47.820;10.534;2022-11-11T15:37:29;10.90;70.10
21734;DHT22;11029;47.820;10.534;2022-11-11T15:40:18;10.70;71.60
21734;DHT22;11029;47.820;10.534;2022-11-11T15:43:04;10.60;72.50
21734;DHT22;11029;47.820;10.534;2022-11-11T15:45:57;10.40;72.60
21734;DHT22;11029;47.820;10.534;2022-11-11T15:48:43;10.30;72.70
21734;DHT22;11029;47.820;10.534;2022-11-11T15:51:29;10.10;73.50
21734;DHT22;11029;47.820;10.534;2022-11-11T15:54:19;9.90;74.10
21734;DHT22;11029;47.820;10.534;2022-11-11T15:57:26;9.70;74.70
21734;DHT22;11029;47.820;10.534;2022-11-11T16:00:24;9.60;75.40
21734;DHT22;11029;47.820;10.534;2022-11-11T16:03:19;9.40;76.20
21734;DHT22;11029;47.820;10.534;2022-11-11T16:06:07;9.30;76.40
21734;DHT22;11029;47.820;10.534;2022-11-11T16:08:53;9.20;76.50
21734;DHT22;11029;47.820;10.534;2022-11-11T16:11:41;9.10;77.00
21734;DHT22;11029;47.820;10.534;2022-11-11T16:14:31;9.00;77.40
21734;DHT22;11029;47.820;10.534;2022-11-11T16:17:21;8.90;76.90
21734;DHT22;11029;47.820;10.534;2022-11-11T16:20:11;8.80;76.90
21734;DHT22;11029;47.820;10.534;2022-11-11T16:22:58;8.70;77.00
21734;DHT22;11029;47.820;10.534;2022-11-11T16:25:44;8.60;76.30
21734;DHT22;11029;47.820;10.534;2022-11-11T16:28:43;8.50;76.10
21734;DHT22;11029;47.820;10.534;2022-11-11T16:31:39;8.40;76.00
21734;DHT22;11029;47.820;10.534;2022-11-11T16:37:15;8.00;77.00
21734;DHT22;11029;47.820;10.534;2022-11-11T16:43:18;7.90;76.30
21734;DHT22;11029;47.820;10.534;2022-11-11T16:46:05;7.80;76.80
21734;DHT22;11029;47.820;10.534;2022-11-11T16:48:51;7.60;76.60
21734;DHT22;11029;47.820;10.534;2022-11-11T16:54:27;7.30;78.20
21734;DHT22;11029;47.820;10.534;2022-11-11T16:57:22;7.20;78.90
21734;DHT22;11029;47.820;10.534;2022-11-11T17:00:11;7.20;78.30
21734;DHT22;11029;47.820;10.534;2022-11-11T17:05:57;7.00;77.30
21734;DHT22;11029;47.820;10.534;2022-11-11T17:08:43;6.90;76.70
21734;DHT22;11029;47.820;10.534;2022-11-11T17:14:23;6.60;76.00
21734;DHT22;11029;47.820;10.534;2022-11-11T17:17:09;6.50;76.70
21734;DHT22;11029;47.820;10.534;2022-11-11T17:20:02;6.40;76.70
21734;DHT22;11029;47.820;10.534;2022-11-11T17:22:51;6.30;76.20
21734;DHT22;11029;47.820;10.534;2022-11-11T17:25:36;6.20;76.60
21734;DHT22;11029;47.820;10.534;2022-11-11T17:28:22;6.20;77.50
21734;DHT22;11029;47.820;10.534;2022-11-11T17:31:08;6.20;78.20
21734;DHT22;11029;47.820;10.534;2022-11-11T17:33:54;6.30;76.80
21734;DHT22;11029;47.820;10.534;2022-11-11T17:36:39;6.20;75.30
21734;DHT22;11029;47.820;10.534;2022-11-11T17:39:24;6.00;76.80
21734;DHT22;11029;47.820;10.534;2022-11-11T17:42:09;5.90;76.70
21734;DHT22;11029;47.820;10.534;2022-11-11T17:44:55;5.80;76.50
21734;DHT22;11029;47.820;10.534;2022-11-11T17:47:40;5.80;76.00
21734;DHT22;11029;47.820;10.534;2022-11-11T17:50:28;5.70;76.10
21734;DHT22;11029;47.820;10.534;2022-11-11T17:53:13;5.60;76.50
21734;DHT22;11029;47.820;10.534;2022-11-11T17:56:09;5.60;77.20
21734;DHT22;11029;47.820;10.534;2022-11-11T17:58:55;5.60;76.10
21734;DHT22;11029;47.820;10.534;2022-11-11T18:01:40;5.50;76.80
21734;DHT22;11029;47.820;10.534;2022-11-11T18:04:25;5.50;76.10
21734;DHT22;11029;47.820;10.534;2022-11-11T18:07:10;5.40;75.90
21734;DHT22;11029;47.820;10.534;2022-11-11T18:09:55;5.30;75.70
21734;DHT22;11029;47.820;10.534;2022-11-11T18:12:40;5.20;76.40
21734;DHT22;11029;47.820;10.534;2022-11-11T18:15:26;5.20;76.60
21734;DHT22;11029;47.820;10.534;2022-11-11T18:18:11;5.20;77.00
21734;DHT22;11029;47.820;10.534;2022-11-11T18:21:00;5.10;76.60
21734;DHT22;11029;47.820;10.534;2022-11-11T18:23:45;5.00;76.80
21734;DHT22;11029;47.820;10.534;2022-11-11T18:26:38;5.00;77.00
21734;DHT22;11029;47.820;10.534;2022-11-11T18:29:24;5.00;77.80
21734;DHT22;11029;47.820;10.534;2022-11-11T18:32:10;4.90;79.60
21734;DHT22;11029;47.820;10.534;2022-11-11T18:34:55;4.80;81.00
21734;DHT22;11029;47.820;10.534;2022-11-11T18:37:41;4.80;80.10
21734;DHT22;11029;47.820;10.534;2022-11-11T18:40:30;4.70;81.20
21734;DHT22;11029;47.820;10.534;2022-11-11T18:43:15;4.70;80.50
21734;DHT22;11029;47.820;10.534;2022-11-11T18:46:01;4.60;81.20
21734;DHT22;11029;47.820;10.534;2022-11-11T18:48:47;4.70;81.30
21734;DHT22;11029;47.820;10.534;2022-11-11T18:51:32;4.70;80.50
21734;DHT22;11029;47.820;10.534;2022-11-11T18:54:20;4.70;80.00
21734;DHT22;11029;47.820;10.534;2022-11-11T18:57:10;4.80;80.10
21734;DHT22;11029;47.820;10.534;2022-11-11T18:59:56;4.80;80.20
21734;DHT22;11029;47.820;10.534;2022-11-11T19:02:41;4.90;79.10
21734;DHT22;11029;47.820;10.534;2022-11-11T19:05:26;4.90;79.50
21734;DHT22;11029;47.820;10.534;2022-11-11T19:08:12;4.90;79.80
21734;DHT22;11029;47.820;10.534;2022-11-11T19:10:57;4.90;78.80
21734;DHT22;11029;47.820;10.534;2022-11-11T19:13:43;4.80;78.00
21734;DHT22;11029;47.820;10.534;2022-11-11T19:16:28;4.60;79.40
21734;DHT22;11029;47.820;10.534;2022-11-11T19:19:14;4.50;78.70
21734;DHT22;11029;47.820;10.534;2022-11-11T19:22:00;4.40;79.00
21734;DHT22;11029;47.820;10.534;2022-11-11T19:24:45;4.40;79.10
21734;DHT22;11029;47.820;10.534;2022-11-11T19:27:31;4.40;79.00
21734;DHT22;11029;47.820;10.534;2022-11-11T19:30:16;4.50;78.30
21734;DHT22;11029;47.820;10.534;2022-11-11T19:33:06;4.50;78.10
21734;DHT22;11029;47.820;10.534;2022-11-11T19:35:58;4.40;78.30
21734;DHT22;11029;47.820;10.534;2022-11-11T19:38:45;4.40;78.30
21734;DHT22;11029;47.820;10.534;2022-11-11T19:41:31;4.30;78.40